Terminal Aerodrome Forecast
Issued by NWS

Home | Current Version | Previous Version | Text Only | Print | Product List | Glossary On
Versions: 1 2 3 4 5 6 7 8 9 10 11 12 13 14 15 16
000
FTUS43 KAPX 271120
TAFPLN
TAF
KPLN 271120Z 2712/2812 28004KT P6SM FEW120 SCT250
     FM271800 33006KT P6SM SCT050
     FM272100 35008KT P6SM BKN060
     FM280200 34004KT P6SM BKN040=

USA.gov is the U.S. government's official web portal to all federal, state and local government web resources and services.